CW8593 Gava ES current weather conditions

sailwx.info

Wind from 325 at 4 knots gusting 8

Air temperature 4.4° C
Dewpoint -7.7° C

Last reported at 2017-Jan-18 23:48 UTC.
Time now 2017-Jan-19 00:21 UTC

Location: N 41°18' E 001°60'.
View on Google Maps.

See reports from other nearby stations

  
Tides and Currents Weather Stations Pressure Air Temp Water Temp Dewpoint Dewpoint Depression Visibility Wind Speed Wind Dir Waves Ship Positions
date/time (UTC)wind fromknots sea level pressurealtimeterstation pressurevisibilityair tempwater tempwave heightnotes
2017-Jan-18 23:48 325 4 gusting 8 4.4
2017-Jan-18 23:38 305 6 gusting 12 4.4
2017-Jan-18 23:33 336 6 gusting 12 4.4
2017-Jan-18 23:28 337 4 gusting 10 4.4
2017-Jan-18 23:23 327 5 gusting 13 4.4
2017-Jan-18 23:18 320 5 gusting 11 5.0
2017-Jan-18 22:58 343 6 gusting 13 5.0
2017-Jan-18 22:38 332 3 gusting 6 4.4
2017-Jan-18 22:28 307 2 gusting 5 4.4
2017-Jan-18 22:18 036 0 gusting 2 4.4
2017-Jan-18 22:13 037 4.4
2017-Jan-18 22:08 039 4.4
2017-Jan-18 21:58 325 0 gusting 4 4.4
2017-Jan-18 21:28 040 2 gusting 6 5.0
2017-Jan-18 21:23 008 2 gusting 6 5.0
2017-Jan-18 21:13 345 3 gusting 6 5.0
2017-Jan-18 21:03 055 1 gusting 4 5.0
2017-Jan-18 20:53 010 0 gusting 4 5.0
2017-Jan-18 20:48 003 1 gusting 4 5.0
2017-Jan-18 20:38 030 2 gusting 6 5.0
2017-Jan-18 20:23 342 3 gusting 6 5.6
2017-Jan-18 20:13 031 2 gusting 7 5.6
2017-Jan-18 20:08 352 4 gusting 6 5.6
2017-Jan-18 19:53 328 2 gusting 6 5.6
2017-Jan-18 19:43 330 1 gusting 2 5.6
2017-Jan-18 19:33 330 0 gusting 2 5.6
2017-Jan-18 19:23 329 0 gusting 1 6.1
2017-Jan-18 19:18 330 0 gusting 1 6.1
2017-Jan-18 19:08 326 6.1
2017-Jan-18 19:03 325 0 gusting 2 6.1
2017-Jan-18 18:33 336 1 gusting 2 6.1
2017-Jan-18 18:28 336 2 gusting 4 6.1
2017-Jan-18 18:18 336 1 gusting 2 6.1
2017-Jan-18 18:03 314 4 gusting 6 6.1
2017-Jan-18 17:53 316 4 gusting 6 6.1
2017-Jan-18 17:43 322 4 gusting 6 6.1
2017-Jan-18 17:33 311 3 gusting 5 6.7
2017-Jan-18 17:28 313 2 gusting 4 6.7
2017-Jan-18 17:23 313 1 gusting 2 6.7
2017-Jan-18 17:18 312 2 gusting 4 6.7
2017-Jan-18 17:13 312 1 gusting 4 7.2
2017-Jan-18 17:03 311 2 gusting 4 7.2
2017-Jan-18 16:48 295 1 gusting 4 7.2
2017-Jan-18 16:23 185 2 gusting 2 8.3
2017-Jan-18 16:08 181 0 gusting 2 9.4
2017-Jan-18 16:03 181 0 gusting 2 9.4
2017-Jan-18 15:43 181 0 gusting 2 8.9
2017-Jan-18 15:38 181 0 gusting 1 8.9
2017-Jan-18 15:33 181 8.9
2017-Jan-18 15:18 182 1 gusting 4 8.9
2017-Jan-18 15:13 182 2 gusting 2 8.9
2017-Jan-18 14:53 192 0 gusting 1 8.9
2017-Jan-18 14:48 192 0 gusting 2 8.9
2017-Jan-18 14:23 126 0 gusting 2 8.9
2017-Jan-18 14:13 126 8.3
2017-Jan-18 14:08 126 1 gusting 4 8.3
2017-Jan-18 13:53 157 1 gusting 5 7.8
2017-Jan-18 13:48 103 2 gusting 6 7.8
2017-Jan-18 13:43 098 2 gusting 10 7.8
2017-Jan-18 13:38 110 1 gusting 7 7.8
2017-Jan-18 13:28 105 4 gusting 10 7.8
2017-Jan-18 13:23 106 4 gusting 10 7.8
2017-Jan-18 13:18 096 3 gusting 8 7.8
2017-Jan-18 13:13 082 2 gusting 7 7.8
2017-Jan-18 13:08 051 4 gusting 6 7.8
2017-Jan-18 13:03 070 5 gusting 10 7.2
2017-Jan-18 12:53 090 6 gusting 11 7.2
2017-Jan-18 12:48 091 6 gusting 10 7.8
2017-Jan-18 12:43 076 3 gusting 10 7.8
2017-Jan-18 12:33 094 7 gusting 12 7.8
2017-Jan-18 12:28 105 6 gusting 11 7.2
2017-Jan-18 12:23 106 6 gusting 10 7.8
2017-Jan-18 12:18 061 1 gusting 8 7.2
2017-Jan-18 12:08 063 5 gusting 10 7.2
2017-Jan-18 11:58 046 2 gusting 7 7.2
2017-Jan-18 11:48 051 6 gusting 10 7.2
2017-Jan-18 11:43 053 4 gusting 8 6.7
2017-Jan-18 11:38 056 7 gusting 10 6.7
2017-Jan-18 11:28 061 7 gusting 11 6.7
2017-Jan-18 11:03 037 4 gusting 7 6.7
2017-Jan-18 10:48 355 2 gusting 7 6.7
2017-Jan-18 10:43 010 4 gusting 8 6.7
2017-Jan-18 10:23 345 4 gusting 7 6.1
2017-Jan-18 10:18 345 4 gusting 7 6.1
2017-Jan-18 10:13 357 5 gusting 8 5.6
2017-Jan-18 10:08 335 5 gusting 10 5.6
2017-Jan-18 09:58 312 6 gusting 12 5.6
2017-Jan-18 09:53 292 7 gusting 13 5.0
2017-Jan-18 09:48 305 4 gusting 10 5.0
2017-Jan-18 09:38 343 4 gusting 7 5.0
2017-Jan-18 09:33 343 6 gusting 12 5.0
2017-Jan-18 09:28 348 4 gusting 8 5.0
2017-Jan-18 09:23 325 5 gusting 13 5.0
2017-Jan-18 09:13 318 4 gusting 10 4.4
2017-Jan-18 09:08 323 3 gusting 10 4.4
2017-Jan-18 08:58 322 4 gusting 10 4.4
2017-Jan-18 08:53 341 4 gusting 10 4.4
2017-Jan-18 08:43 312 3 gusting 6 3.9
2017-Jan-18 08:33 319 5 gusting 10 3.3
2017-Jan-18 08:23 339 3 gusting 7 2.8
2017-Jan-18 08:18 320 4 gusting 8 2.8
2017-Jan-18 08:13 306 6 gusting 10 2.2
2017-Jan-18 08:08 314 6 gusting 10 2.2
2017-Jan-18 08:03 312 5 gusting 8 2.2
2017-Jan-18 07:53 301 7 gusting 12 2.2
2017-Jan-18 07:48 305 7 gusting 12 2.2
2017-Jan-18 07:33 310 6 gusting 10 2.2
2017-Jan-18 07:28 313 6 gusting 10 2.2
2017-Jan-18 07:23 308 5 gusting 12 2.2
2017-Jan-18 07:18 305 7 gusting 13 1.7
2017-Jan-18 07:08 303 6 gusting 11 1.7
2017-Jan-18 06:58 341 2 gusting 6 2.2
2017-Jan-18 06:38 332 4 gusting 7 2.2
2017-Jan-18 06:33 321 5 gusting 10 1.7
2017-Jan-18 06:08 314 5 gusting 8 1.7
2017-Jan-18 05:53 318 6 gusting 12 1.7
2017-Jan-18 05:43 308 7 gusting 10 1.7
2017-Jan-18 05:38 308 5 gusting 10 1.7
2017-Jan-18 05:23 328 5 gusting 11 1.7
2017-Jan-18 05:13 315 5 gusting 11 1.7
2017-Jan-18 05:08 324 5 gusting 10 1.7
2017-Jan-18 05:03 304 6 gusting 11 1.7
2017-Jan-18 04:53 341 6 gusting 10 1.7
2017-Jan-18 04:48 315 6 gusting 10 2.2
2017-Jan-18 04:38 003 2 gusting 6 2.2
2017-Jan-18 04:23 306 6 gusting 10 2.2
2017-Jan-18 04:18 329 5 gusting 8 2.2
2017-Jan-18 04:08 341 6 gusting 7 2.2
2017-Jan-18 04:03 356 2 gusting 6 2.2
2017-Jan-18 03:58 332 5 gusting 8 2.2
2017-Jan-18 03:53 320 6 gusting 14 2.2
2017-Jan-18 03:43 304 7 gusting 11 1.7
2017-Jan-18 03:38 315 6 gusting 11 1.1
2017-Jan-18 03:28 307 6 gusting 11 1.1
2017-Jan-18 03:23 306 7 gusting 11 1.1
2017-Jan-18 03:18 304 8 gusting 13 1.1
2017-Jan-18 03:13 298 7 gusting 11 1.1
2017-Jan-18 03:03 312 6 gusting 11 1.1
2017-Jan-18 02:58 311 5 gusting 8 1.1
2017-Jan-18 02:53 337 4 gusting 7 1.7
2017-Jan-18 02:48 317 5 gusting 10 1.7
2017-Jan-18 02:43 343 4 gusting 10 1.7
2017-Jan-18 02:38 346 5 gusting 10 1.7
2017-Jan-18 02:33 330 4 gusting 10 1.7
2017-Jan-18 02:28 312 6 gusting 10 1.7
2017-Jan-18 02:18 318 5 gusting 10 1.7
2017-Jan-18 02:13 321 5 gusting 10 2.2
2017-Jan-18 02:08 307 7 gusting 12 2.2
2017-Jan-18 01:53 305 8 gusting 12 2.2
2017-Jan-18 01:48 323 6 gusting 10 2.2
2017-Jan-18 01:38 327 5 gusting 11 2.2
2017-Jan-18 01:33 315 6 gusting 10 2.2
2017-Jan-18 01:23 323 5 gusting 11 2.2
2017-Jan-18 01:18 344 5 gusting 10 2.2
2017-Jan-18 01:13 316 5 gusting 10 2.2
2017-Jan-18 01:08 320 5 gusting 10 2.8
2017-Jan-18 01:03 318 4 gusting 8 2.8
2017-Jan-18 00:58 313 5 gusting 8 2.8
2017-Jan-18 00:53 304 5 gusting 8 2.8
2017-Jan-18 00:43 333 2 gusting 5 2.8
2017-Jan-18 00:38 315 2 gusting 6 2.8
2017-Jan-18 00:33 307 2 gusting 4 2.8
2017-Jan-17 23:53 292 0 gusting 2 2.8
2017-Jan-17 23:48 292 2.8
2017-Jan-17 23:43 293 2.8
2017-Jan-17 23:18 292 2.2
2017-Jan-17 22:58 293 2.2
2017-Jan-17 22:48 292 2.8
2017-Jan-17 22:43 292 0 gusting 2 2.8
2017-Jan-17 22:38 293 1 gusting 2 2.8
2017-Jan-17 22:33 293 2 gusting 2 2.8
2017-Jan-17 22:18 293 0 gusting 2 2.8
2017-Jan-17 22:13 293 1 gusting 2 2.8
2017-Jan-17 22:08 293 1 gusting 2 2.8
2017-Jan-17 21:43 293 2 gusting 2 2.8
2017-Jan-17 21:38 292 1 gusting 2 2.8
2017-Jan-17 21:23 285 1 gusting 2 2.2
2017-Jan-17 21:18 261 1 gusting 2 2.2
2017-Jan-17 21:13 193 2 gusting 4 1.7
2017-Jan-17 21:08 146 1.7
2017-Jan-17 20:53 190 2.8
2017-Jan-17 20:43 190 0 gusting 2 3.3
2017-Jan-17 20:38 190 3.9
2017-Jan-17 20:33 190 0 gusting 2 3.9
2017-Jan-17 20:18 190 1 gusting 2 3.9
2017-Jan-17 20:08 190 1 gusting 2 3.3
2017-Jan-17 20:03 190 1 gusting 2 3.3
2017-Jan-17 19:48 190 2 gusting 2 2.8
2017-Jan-17 19:38 190 0 gusting 1 3.3
2017-Jan-17 19:28 190 3.3
2017-Jan-17 19:23 190 3.3
2017-Jan-17 19:13 190 3.3
2017-Jan-17 19:08 190 0 gusting 1 3.3
2017-Jan-17 18:53 190 0 gusting 2 3.3
2017-Jan-17 18:48 190 3.3
2017-Jan-17 18:23 190 1 gusting 2 3.3
2017-Jan-17 18:18 190 1 gusting 2 3.3
2017-Jan-17 18:13 190 1 gusting 2 3.3
2017-Jan-17 17:58 189 1 gusting 2 3.9
2017-Jan-17 17:43 189 1 gusting 2 3.9
2017-Jan-17 17:23 188 1 gusting 2 4.4
2017-Jan-17 17:13 188 0 gusting 2 4.4
2017-Jan-17 17:08 188 1 gusting 2 5.0
2017-Jan-17 16:58 188 1 gusting 2 5.0
2017-Jan-17 16:53 187 2 gusting 2 5.6
2017-Jan-17 16:48 187 1 gusting 2 6.1
2017-Jan-17 16:23 170 0 gusting 2 6.7
2017-Jan-17 16:18 170 0 gusting 2 6.7
2017-Jan-17 16:13 170 7.2
2017-Jan-17 16:03 170 0 gusting 2 7.2
2017-Jan-17 15:48 172 0 gusting 2 7.2
2017-Jan-17 15:43 171 1 gusting 4 7.2
2017-Jan-17 15:28 219 2 gusting 6 6.7
2017-Jan-17 15:18 120 6 gusting 10 6.7
2017-Jan-17 15:08 189 2 gusting 5 7.2
2017-Jan-17 14:48 185 3 gusting 6 7.2
2017-Jan-17 14:43 117 3 gusting 6 6.7
2017-Jan-17 14:33 122 3 gusting 7 6.7
2017-Jan-17 14:28 125 0 gusting 10 6.7
2017-Jan-17 14:18 136 3 gusting 10 6.7
2017-Jan-17 14:03 120 2 gusting 6 6.7
2017-Jan-17 13:58 157 4 gusting 12 6.7
2017-Jan-17 13:43 138 3 gusting 11 6.7
2017-Jan-17 13:33 124 6 gusting 11 6.7
2017-Jan-17 13:13 102 3 gusting 7 6.7
2017-Jan-17 13:08 100 5 gusting 7 6.7
2017-Jan-17 12:58 088 6 gusting 10 6.7
2017-Jan-17 12:53 127 6 gusting 10 6.7
2017-Jan-17 12:48 101 4 gusting 11 6.7
2017-Jan-17 12:23 101 6 gusting 11 6.1
2017-Jan-17 12:18 122 6 gusting 13 6.1
2017-Jan-17 12:08 127 6 gusting 13 6.1
2017-Jan-17 11:53 114 4 gusting 7 6.7
2017-Jan-17 11:38 126 6 gusting 11 6.1
2017-Jan-17 11:33 080 4 gusting 12 6.7
2017-Jan-17 11:28 102 4 gusting 7 6.7
2017-Jan-17 11:13 349 3 gusting 10 6.7
2017-Jan-17 11:08 058 6 gusting 14 6.7
2017-Jan-17 10:53 068 6 gusting 15 6.7
2017-Jan-17 10:43 016 9 gusting 13 6.7
2017-Jan-17 10:38 063 11 gusting 19 6.7
2017-Jan-17 10:23 041 6 gusting 18 6.7
2017-Jan-17 10:18 011 11 gusting 17 6.1
2017-Jan-17 10:13 059 5 gusting 10 6.7
2017-Jan-17 10:08 011 7 gusting 13 6.1
2017-Jan-17 10:03 042 7 gusting 15 6.1
2017-Jan-17 09:38 016 5 gusting 10 6.1
2017-Jan-17 09:33 050 6 gusting 13 6.1
2017-Jan-17 09:23 045 6 gusting 13 6.1
2017-Jan-17 09:18 015 8 gusting 14 5.6
2017-Jan-17 09:08 026 6 gusting 12 6.1
2017-Jan-17 08:58 355 5 gusting 10 6.1
2017-Jan-17 08:48 035 6 gusting 11 5.6
2017-Jan-17 08:33 012 6 gusting 11 5.6
2017-Jan-17 08:28 030 6 gusting 11 5.6
2017-Jan-17 08:23 001 6 gusting 11 5.6
2017-Jan-17 08:18 056 5 gusting 11 5.6
2017-Jan-17 08:08 026 4 gusting 7 5.6
2017-Jan-17 07:53 004 11 gusting 19 5.6
2017-Jan-17 07:43 005 15 gusting 26 5.6
2017-Jan-17 07:28 347 14 gusting 27 5.6
2017-Jan-17 06:53 348 11 gusting 26 5.6
2017-Jan-17 06:48 026 12 gusting 26 5.6
2017-Jan-17 06:38 347 15 gusting 33 5.6
2017-Jan-17 06:33 005 11 gusting 25 5.6
2017-Jan-17 06:23 009 11 gusting 26 5.6
2017-Jan-17 06:18 012 17 gusting 30 5.6
2017-Jan-17 06:13 039 9 gusting 19 5.0
2017-Jan-17 06:03 005 8 gusting 20 5.0
2017-Jan-17 05:53 353 8 gusting 21 5.0
2017-Jan-17 05:48 020 7 gusting 13 5.0
2017-Jan-17 05:43 014 6 gusting 15 5.6
2017-Jan-17 05:33 002 7 gusting 13 5.6
2017-Jan-17 05:18 354 7 gusting 17 5.6
2017-Jan-17 05:13 012 10 gusting 19 5.6
2017-Jan-17 05:03 004 7 gusting 21 5.6
2017-Jan-17 04:53 010 13 gusting 26 6.1
2017-Jan-17 04:43 003 11 gusting 20 6.1
2017-Jan-17 04:38 008 10 gusting 18 6.1
2017-Jan-17 04:33 019 10 gusting 20 6.1
2017-Jan-17 04:23 003 8 gusting 13 6.1
2017-Jan-17 04:03 001 6 gusting 14 5.0
2017-Jan-17 03:43 344 1 gusting 5 3.9
2017-Jan-17 03:33 308 4 gusting 6 3.9
2017-Jan-17 03:28 332 2 gusting 4 3.9
2017-Jan-17 03:13 333 1 gusting 4 4.4
2017-Jan-17 03:03 331 2 gusting 4 4.4
2017-Jan-17 02:58 324 1 gusting 5 4.4
2017-Jan-17 02:43 315 2 gusting 6 4.4
2017-Jan-17 02:38 335 2 gusting 4 4.4
2017-Jan-17 02:33 312 3 gusting 6 5.0
2017-Jan-17 02:28 312 4 gusting 6 5.0
2017-Jan-17 02:18 315 2 gusting 5 5.0
2017-Jan-17 02:13 313 5 gusting 7 5.0
2017-Jan-17 01:58 299 4 gusting 6 5.0
2017-Jan-17 01:48 304 2 gusting 6 5.0
2017-Jan-17 01:43 305 4 gusting 6 5.0
2017-Jan-17 01:38 300 5 gusting 7 5.0
2017-Jan-17 01:33 318 2 gusting 6 5.0
2017-Jan-17 01:23 311 4 gusting 8 5.6
2017-Jan-17 01:08 339 4 gusting 8 5.6
2017-Jan-17 00:58 326 3 gusting 6 5.6
2017-Jan-17 00:53 340 6 gusting 10 5.6
2017-Jan-17 00:48 323 5 gusting 10 5.6
2017-Jan-17 00:23 336 4 gusting 6 6.1